createdAt,value
2019-05-10T00:00:47.050Z,996.01
2019-05-10T00:01:47.045Z,996.04
2019-05-10T00:02:47.036Z,996.06
2019-05-10T00:03:47.031Z,995.98
2019-05-10T00:04:47.025Z,995.97
2019-05-10T00:05:47.020Z,996.03
2019-05-10T00:06:47.017Z,996.02
2019-05-10T00:07:47.010Z,996.01
2019-05-10T00:08:47.189Z,996.04
2019-05-10T00:09:46.999Z,996.05
2019-05-10T00:12:14.710Z,996.04
2019-05-10T00:13:14.704Z,996.10
2019-05-10T00:14:14.700Z,996.08
2019-05-10T00:15:14.693Z,996.08
2019-05-10T00:16:14.684Z,996.14
2019-05-10T00:17:14.679Z,996.11
2019-05-10T00:18:14.670Z,996.11
2019-05-10T00:19:14.666Z,996.15
2019-05-10T00:20:14.658Z,996.15
2019-05-10T00:21:14.650Z,996.18
2019-05-10T00:22:14.648Z,996.20
2019-05-10T00:23:14.638Z,996.16
2019-05-10T00:24:42.381Z,996.14
2019-05-10T00:25:42.376Z,996.18
2019-05-10T00:26:42.370Z,996.16
2019-05-10T00:28:10.092Z,996.14
2019-05-10T00:29:10.088Z,996.21
2019-05-10T00:30:10.087Z,996.20
2019-05-10T00:31:10.078Z,996.22
2019-05-10T00:32:10.073Z,996.21
2019-05-10T00:33:10.065Z,996.24
2019-05-10T00:35:10.052Z,996.24
2019-05-10T00:36:10.047Z,996.31
2019-05-10T00:37:10.039Z,996.38
2019-05-10T00:38:10.033Z,996.29
2019-05-10T00:39:10.027Z,996.32
2019-05-10T00:40:10.058Z,996.28
2019-05-10T00:41:10.016Z,996.31
2019-05-10T00:42:10.036Z,996.30
2019-05-10T00:43:10.000Z,996.28
2019-05-10T00:44:09.995Z,996.32
2019-05-10T00:45:09.988Z,996.29
2019-05-10T00:46:09.983Z,996.35
2019-05-10T00:47:09.980Z,996.31
2019-05-10T00:48:09.970Z,996.35
2019-05-10T00:49:09.964Z,996.33
2019-05-10T00:50:09.957Z,996.34
2019-05-10T00:51:09.952Z,996.47
2019-05-10T00:52:09.957Z,996.49
2019-05-10T00:53:09.939Z,996.32
2019-05-10T00:54:09.931Z,996.40
2019-05-10T00:55:18.382Z,996.45
2019-05-10T00:56:11.921Z,996.34
2019-05-10T00:57:09.916Z,996.42
2019-05-10T00:58:09.907Z,996.40
2019-05-10T00:59:09.905Z,996.42
2019-05-10T01:00:09.897Z,996.45
2019-05-10T01:01:09.888Z,996.45
2019-05-10T01:02:09.887Z,996.49
2019-05-10T01:03:09.877Z,996.46
2019-05-10T01:04:09.870Z,996.49
2019-05-10T01:05:37.595Z,996.48
2019-05-10T01:06:37.587Z,996.49
2019-05-10T01:07:37.591Z,996.46
2019-05-10T01:08:37.572Z,996.53
2019-05-10T01:09:37.566Z,996.50
2019-05-10T01:10:37.566Z,996.45
2019-05-10T01:11:37.555Z,996.48
2019-05-10T01:12:37.544Z,996.44
2019-05-10T01:13:37.544Z,996.49
2019-05-10T01:14:37.532Z,996.46
2019-05-10T01:15:37.528Z,996.50
2019-05-10T01:16:37.521Z,996.51
2019-05-10T01:17:37.513Z,996.59
2019-05-10T01:19:37.500Z,996.58
2019-05-10T01:21:37.485Z,996.66
2019-05-10T01:23:05.214Z,996.65
2019-05-10T01:24:05.202Z,996.68
2019-05-10T01:25:05.199Z,996.72
2019-05-10T01:26:05.192Z,996.77
2019-05-10T01:27:05.183Z,996.73
2019-05-10T01:28:05.179Z,996.79
2019-05-10T01:29:05.171Z,996.81
2019-05-10T01:30:05.173Z,996.78
2019-05-10T01:31:05.161Z,996.79
2019-05-10T01:32:05.162Z,996.85
2019-05-10T01:33:05.145Z,996.84
2019-05-10T01:34:05.140Z,996.81
2019-05-10T01:35:05.132Z,996.82
2019-05-10T01:36:05.126Z,996.85
2019-05-10T01:37:05.117Z,996.86
2019-05-10T01:38:05.109Z,996.86
2019-05-10T01:39:05.105Z,996.84
2019-05-10T01:40:05.096Z,996.85
2019-05-10T01:41:05.089Z,996.88
2019-05-10T01:42:05.083Z,996.91
2019-05-10T01:43:05.075Z,996.93
2019-05-10T01:44:05.069Z,996.92
2019-05-10T01:45:05.064Z,996.91
2019-05-10T01:46:32.782Z,996.93
2019-05-10T01:47:32.776Z,996.89
2019-05-10T01:48:32.771Z,996.92
2019-05-10T01:49:32.767Z,996.95
2019-05-10T01:50:32.760Z,996.92
2019-05-10T01:51:32.758Z,997.00
2019-05-10T01:52:32.747Z,996.94
2019-05-10T01:53:32.740Z,996.91
2019-05-10T01:54:32.737Z,996.95
2019-05-10T01:55:32.727Z,996.92
2019-05-10T01:56:32.720Z,996.91
2019-05-10T01:57:32.714Z,996.93
2019-05-10T01:58:32.707Z,996.88
2019-05-10T01:59:32.700Z,996.92
2019-05-10T02:01:05.484Z,996.89
2019-05-10T02:02:05.480Z,996.91
2019-05-10T02:03:05.474Z,996.90
2019-05-10T02:04:05.464Z,996.94
2019-05-10T02:05:05.455Z,996.90
2019-05-10T02:06:05.451Z,996.98
2019-05-10T02:07:05.493Z,996.91
2019-05-10T02:08:05.469Z,996.98
2019-05-10T02:09:05.497Z,996.99
2019-05-10T02:10:05.437Z,996.98
2019-05-10T02:11:05.430Z,997.00
2019-05-10T02:12:05.424Z,996.97
2019-05-10T02:13:05.414Z,996.98
2019-05-10T02:14:05.408Z,997.00
2019-05-10T02:15:05.405Z,996.94
2019-05-10T02:16:05.397Z,997.01
2019-05-10T02:17:33.118Z,996.99
2019-05-10T02:18:33.315Z,997.02
2019-05-10T02:19:33.109Z,997.08
2019-05-10T02:20:33.099Z,997.10
2019-05-10T02:21:33.094Z,997.06
2019-05-10T02:22:33.092Z,997.07
2019-05-10T02:23:33.080Z,997.00
2019-05-10T02:24:33.078Z,997.10
2019-05-10T02:25:33.068Z,997.12
2019-05-10T02:26:33.063Z,997.08
2019-05-10T02:27:33.057Z,997.10
2019-05-10T02:28:33.047Z,997.10
2019-05-10T02:29:33.048Z,997.10
2019-05-10T02:30:33.057Z,997.13
2019-05-10T02:31:33.036Z,997.11
2019-05-10T02:32:33.033Z,997.09
2019-05-10T02:33:33.021Z,997.10
2019-05-10T02:34:33.016Z,997.19
2019-05-10T02:35:33.011Z,997.10
2019-05-10T02:36:32.999Z,997.07
2019-05-10T02:37:32.993Z,997.09
2019-05-10T02:38:32.988Z,997.17
2019-05-10T02:39:32.977Z,997.15
2019-05-10T02:40:32.997Z,997.14
2019-05-10T02:41:32.970Z,997.16
2019-05-10T02:42:33.160Z,997.20
2019-05-10T02:43:32.955Z,997.21
2019-05-10T02:44:32.947Z,997.21
2019-05-10T02:45:32.938Z,997.20
2019-05-10T02:46:32.935Z,997.24
2019-05-10T02:47:32.925Z,997.23
2019-05-10T02:48:32.920Z,997.24
2019-05-10T02:49:32.914Z,997.25
2019-05-10T02:50:32.909Z,997.28
2019-05-10T02:51:32.898Z,997.24
2019-05-10T02:52:32.899Z,997.26
2019-05-10T02:54:00.614Z,997.28
2019-05-10T02:55:28.345Z,997.25
2019-05-10T02:56:30.868Z,997.27
2019-05-10T02:57:28.338Z,997.28
2019-05-10T02:58:28.332Z,997.33
2019-05-10T02:59:28.329Z,997.29
2019-05-10T03:00:28.326Z,997.31
2019-05-10T03:01:28.319Z,997.34
2019-05-10T03:02:28.314Z,997.31
2019-05-10T03:03:28.296Z,997.35
2019-05-10T03:04:28.293Z,997.34
2019-05-10T03:05:28.283Z,997.37
2019-05-10T03:06:28.344Z,997.35
2019-05-10T03:08:28.266Z,997.36
2019-05-10T03:09:28.280Z,997.31
2019-05-10T03:10:56.322Z,997.43
2019-05-10T03:11:55.994Z,997.47
2019-05-10T03:12:55.989Z,997.46
2019-05-10T03:13:55.985Z,997.44
2019-05-10T03:14:55.979Z,997.55
2019-05-10T03:15:55.973Z,997.49
2019-05-10T03:17:55.955Z,997.49
2019-05-10T03:18:55.952Z,997.57
2019-05-10T03:19:55.948Z,997.49
2019-05-10T03:20:55.939Z,997.51
2019-05-10T03:21:55.934Z,997.52
2019-05-10T03:22:55.924Z,997.60
2019-05-10T03:23:55.918Z,997.60
2019-05-10T03:24:55.912Z,997.59
2019-05-10T03:25:55.905Z,997.63
2019-05-10T03:26:55.897Z,997.64
2019-05-10T03:27:55.898Z,997.65
2019-05-10T03:28:55.908Z,997.60
2019-05-10T03:29:55.901Z,997.69
2019-05-10T03:31:23.624Z,997.62
2019-05-10T03:32:23.628Z,997.68
2019-05-10T03:33:23.771Z,997.62
2019-05-10T03:34:23.619Z,997.65
2019-05-10T03:36:23.604Z,997.61
2019-05-10T03:37:23.607Z,997.62
2019-05-10T03:38:23.613Z,997.66
2019-05-10T03:39:23.588Z,997.68
2019-05-10T03:40:23.578Z,997.66
2019-05-10T03:41:23.576Z,997.67
2019-05-10T03:42:23.563Z,997.66
2019-05-10T03:43:23.555Z,997.70
2019-05-10T03:44:23.547Z,997.70
2019-05-10T03:45:23.540Z,997.70
2019-05-10T03:46:23.534Z,997.70
2019-05-10T03:47:23.526Z,997.70
2019-05-10T03:49:23.514Z,997.77
2019-05-10T03:50:23.505Z,997.77
2019-05-10T03:51:23.528Z,997.77
2019-05-10T03:52:23.526Z,997.80
2019-05-10T03:53:23.521Z,997.80
2019-05-10T03:54:23.517Z,997.79
2019-05-10T03:55:23.512Z,997.81
2019-05-10T03:56:23.506Z,997.86
2019-05-10T03:57:23.497Z,997.83
2019-05-10T03:58:23.493Z,997.80
2019-05-10T03:59:23.488Z,997.87
2019-05-10T04:00:23.702Z,997.84
2019-05-10T04:01:23.497Z,997.82
2019-05-10T04:02:23.488Z,997.92
2019-05-10T04:03:23.498Z,997.89
2019-05-10T04:04:23.477Z,997.92
2019-05-10T04:05:23.472Z,997.89
2019-05-10T04:06:23.481Z,997.87
2019-05-10T04:08:23.450Z,997.90
2019-05-10T04:09:23.452Z,997.98
2019-05-10T04:10:23.443Z,997.98
2019-05-10T04:11:23.521Z,998.00
2019-05-10T04:12:23.449Z,997.99
2019-05-10T04:13:23.419Z,998.03
2019-05-10T04:14:23.477Z,998.00
2019-05-10T04:15:23.407Z,998.03
2019-05-10T04:16:23.396Z,998.03
2019-05-10T04:17:23.396Z,998.06
2019-05-10T04:18:23.388Z,998.06
2019-05-10T04:19:23.380Z,998.06
2019-05-10T04:20:23.373Z,998.09
2019-05-10T04:21:23.366Z,998.06
2019-05-10T04:22:23.361Z,998.04
2019-05-10T04:23:23.355Z,998.08
2019-05-10T04:24:23.355Z,998.06
2019-05-10T04:25:23.346Z,998.07
2019-05-10T04:26:23.336Z,998.12
2019-05-10T04:27:31.971Z,998.15
2019-05-10T04:28:51.050Z,998.17
2019-05-10T04:29:51.051Z,998.16
2019-05-10T04:30:51.039Z,998.19
2019-05-10T04:31:51.031Z,998.16
2019-05-10T04:32:51.027Z,998.15
2019-05-10T04:33:51.020Z,998.22
2019-05-10T04:34:51.014Z,998.21
2019-05-10T04:35:51.007Z,998.26
2019-05-10T04:36:51.001Z,998.23
2019-05-10T04:37:50.996Z,998.19
2019-05-10T04:38:50.987Z,998.22
2019-05-10T04:39:50.980Z,998.21
2019-05-10T04:40:50.974Z,998.26
2019-05-10T04:41:50.966Z,998.25
2019-05-10T04:42:50.960Z,998.26
2019-05-10T04:43:50.952Z,998.23
2019-05-10T04:45:18.693Z,998.15
2019-05-10T04:46:18.692Z,998.20
2019-05-10T04:47:18.686Z,998.16
2019-05-10T04:48:18.675Z,998.21
2019-05-10T04:49:18.669Z,998.23
2019-05-10T04:50:18.669Z,998.24
2019-05-10T04:51:18.659Z,998.25
2019-05-10T04:52:18.702Z,998.30
2019-05-10T04:53:18.648Z,998.25
2019-05-10T04:54:18.647Z,998.25
2019-05-10T04:55:18.633Z,998.26
2019-05-10T04:56:18.626Z,998.29
2019-05-10T04:57:18.618Z,998.28
2019-05-10T04:58:18.613Z,998.29
2019-05-10T04:59:18.603Z,998.34
2019-05-10T05:00:18.609Z,998.35
2019-05-10T05:01:18.596Z,998.32
2019-05-10T05:02:22.017Z,998.32
2019-05-10T05:03:18.593Z,998.28
2019-05-10T05:04:18.581Z,998.40
2019-05-10T05:05:18.643Z,998.31
2019-05-10T05:06:18.575Z,998.37
2019-05-10T05:07:18.561Z,998.38
2019-05-10T05:08:18.555Z,998.38
2019-05-10T05:09:18.550Z,998.36
2019-05-10T05:10:18.548Z,998.44
2019-05-10T05:11:18.558Z,998.41
2019-05-10T05:12:18.550Z,998.46
2019-05-10T05:13:18.556Z,998.41
2019-05-10T05:14:18.538Z,998.44
2019-05-10T05:15:18.532Z,998.48
2019-05-10T05:16:46.322Z,998.48
2019-05-10T05:17:46.244Z,998.43
2019-05-10T05:18:46.255Z,998.50
2019-05-10T05:19:46.232Z,998.48
2019-05-10T05:20:46.226Z,998.55
2019-05-10T05:21:46.219Z,998.50
2019-05-10T05:22:46.214Z,998.50
2019-05-10T05:23:46.209Z,998.53
2019-05-10T05:24:46.199Z,998.56
2019-05-10T05:25:46.193Z,998.57
2019-05-10T05:26:46.188Z,998.57
2019-05-10T05:27:46.181Z,998.59
2019-05-10T05:28:46.172Z,998.61
2019-05-10T05:29:46.168Z,998.59
2019-05-10T05:30:46.160Z,998.62
2019-05-10T05:31:46.162Z,998.59
2019-05-10T05:32:46.147Z,998.60
2019-05-10T05:33:46.140Z,998.64
2019-05-10T05:34:46.134Z,998.66
2019-05-10T05:35:46.124Z,998.68
2019-05-10T05:36:46.118Z,998.68
2019-05-10T05:37:46.112Z,998.64
2019-05-10T05:38:47.486Z,998.67
2019-05-10T05:39:46.099Z,998.66
2019-05-10T05:40:46.101Z,998.68
2019-05-10T05:41:51.595Z,998.67
2019-05-10T05:42:48.080Z,998.72
2019-05-10T05:43:48.067Z,998.73
2019-05-10T05:44:46.067Z,998.73
2019-05-10T05:45:46.058Z,998.73
2019-05-10T05:46:46.054Z,998.70
2019-05-10T05:47:46.044Z,998.75
2019-05-10T05:48:46.242Z,998.80
2019-05-10T05:49:46.034Z,998.80
2019-05-10T05:50:46.021Z,998.83
2019-05-10T05:52:19.274Z,998.80
2019-05-10T05:52:46.021Z,998.82
2019-05-10T05:53:46.049Z,998.82
2019-05-10T05:54:45.993Z,998.82
2019-05-10T05:56:50.821Z,998.88
2019-05-10T05:58:25.613Z,998.89
2019-05-10T05:59:41.434Z,998.94
2019-05-10T06:00:44.654Z,998.89
2019-05-10T06:01:41.428Z,998.91
2019-05-10T06:02:45.053Z,998.99
2019-05-10T06:03:41.412Z,998.99
2019-05-10T06:04:46.263Z,998.99
2019-05-10T06:06:20.920Z,998.95
2019-05-10T06:07:11.120Z,998.92
2019-05-10T06:08:36.892Z,998.98
2019-05-10T06:09:37.835Z,998.92
2019-05-10T06:10:36.881Z,998.97
2019-05-10T06:11:37.843Z,998.98
2019-05-10T06:12:36.873Z,998.92
2019-05-10T06:13:36.916Z,998.93
2019-05-10T06:14:36.857Z,998.92
2019-05-10T06:16:06.407Z,998.91
2019-05-10T06:17:32.311Z,998.91
2019-05-10T06:18:32.300Z,998.89
2019-05-10T06:19:32.291Z,998.94
2019-05-10T06:20:32.287Z,998.97
2019-05-10T06:21:32.281Z,998.91
2019-05-10T06:22:32.282Z,998.94
2019-05-10T06:23:35.127Z,998.97
2019-05-10T06:24:34.371Z,998.90
2019-05-10T06:25:39.204Z,998.98
2019-05-10T06:26:34.250Z,999.03
2019-05-10T06:27:35.425Z,998.94
2019-05-10T06:29:04.194Z,998.94
2019-05-10T06:30:00.008Z,998.97
2019-05-10T06:30:59.953Z,998.94
2019-05-10T06:31:59.954Z,998.95
2019-05-10T06:33:11.294Z,998.93
2019-05-10T06:34:31.862Z,998.96
2019-05-10T06:35:29.661Z,998.98
2019-05-10T06:36:27.705Z,998.95
2019-05-10T06:37:31.218Z,999.03
2019-05-10T06:38:27.642Z,999.03
2019-05-10T06:39:27.637Z,999.04
2019-05-10T06:40:35.611Z,999.03
2019-05-10T06:41:56.404Z,999.00
2019-05-10T06:42:55.353Z,998.98
2019-05-10T06:43:55.335Z,998.99
2019-05-10T06:45:23.057Z,998.98
2019-05-10T06:46:23.799Z,999.01
2019-05-10T06:47:53.433Z,998.99
2019-05-10T06:48:50.973Z,998.97
2019-05-10T06:49:52.305Z,999.00
2019-05-10T06:50:50.764Z,998.95
2019-05-10T06:51:51.007Z,999.01
2019-05-10T06:52:52.155Z,999.03
2019-05-10T06:53:53.623Z,999.00
2019-05-10T06:54:50.733Z,999.02
2019-05-10T06:55:50.734Z,999.05
2019-05-10T06:56:50.744Z,999.00
2019-05-10T06:57:59.577Z,999.04
2019-05-10T06:59:19.334Z,998.99
2019-05-10T07:00:18.458Z,999.06
2019-05-10T07:01:18.450Z,999.06
2019-05-10T07:02:20.072Z,999.02
2019-05-10T07:03:46.162Z,999.08
2019-05-10T07:04:46.157Z,998.95
2019-05-10T07:05:46.153Z,999.08
2019-05-10T07:06:46.148Z,999.09
2019-05-10T07:07:46.139Z,999.07
2019-05-10T07:08:46.227Z,999.09
2019-05-10T07:10:03.781Z,999.11
2019-05-10T07:10:48.118Z,999.05
2019-05-10T07:11:46.113Z,999.13
2019-05-10T07:12:46.159Z,999.05
2019-05-10T07:13:48.733Z,999.13
2019-05-10T07:14:48.105Z,999.17
2019-05-10T07:15:46.096Z,999.14
2019-05-10T07:16:46.092Z,999.18
2019-05-10T07:17:47.381Z,999.16
2019-05-10T07:18:46.108Z,999.19
2019-05-10T07:19:53.838Z,999.14
2019-05-10T07:21:13.817Z,999.20
2019-05-10T07:22:13.813Z,999.19
2019-05-10T07:23:13.807Z,999.19
2019-05-10T07:24:18.356Z,999.23
2019-05-10T07:25:43.703Z,999.22
2019-05-10T07:27:09.243Z,999.19
2019-05-10T07:28:15.468Z,999.22
2019-05-10T07:29:43.674Z,999.21
2019-05-10T07:30:41.554Z,999.24
2019-05-10T07:31:36.955Z,999.28
2019-05-10T07:32:36.984Z,999.25
2019-05-10T07:33:39.212Z,999.24
2019-05-10T07:34:36.933Z,999.20
2019-05-10T07:35:38.643Z,999.17
2019-05-10T07:36:36.915Z,999.21
2019-05-10T07:37:36.908Z,999.20
2019-05-10T07:38:36.901Z,999.26
2019-05-10T07:39:36.895Z,999.21
2019-05-10T07:40:37.090Z,999.23
2019-05-10T07:41:37.106Z,999.25
2019-05-10T07:42:39.843Z,999.28
2019-05-10T07:44:07.944Z,999.24
2019-05-10T07:45:04.594Z,999.31
2019-05-10T07:46:31.761Z,999.26
2019-05-10T07:47:32.645Z,999.24
2019-05-10T07:48:31.752Z,999.23
2019-05-10T07:49:32.531Z,999.26
2019-05-10T07:50:31.741Z,999.34
2019-05-10T07:51:31.789Z,999.33
2019-05-10T07:52:36.510Z,999.30
2019-05-10T07:54:04.501Z,999.36
2019-05-10T07:55:29.501Z,999.31
2019-05-10T07:56:26.145Z,999.40
2019-05-10T07:57:27.024Z,999.36
2019-05-10T07:58:53.361Z,999.38
2019-05-10T07:59:57.685Z,999.40
2019-05-10T08:01:29.089Z,999.39
2019-05-10T08:02:22.572Z,999.37
2019-05-10T08:03:23.739Z,999.38
2019-05-10T08:04:28.856Z,999.43
2019-05-10T08:05:55.143Z,999.47
2019-05-10T08:07:15.077Z,999.37
2019-05-10T08:08:15.021Z,999.44
2019-05-10T08:09:15.018Z,999.42
2019-05-10T08:10:15.009Z,999.38
2019-05-10T08:11:15.005Z,999.49
2019-05-10T08:12:14.997Z,999.47
2019-05-10T08:13:15.434Z,999.49
2019-05-10T08:14:14.982Z,999.48
2019-05-10T08:15:14.976Z,999.59
2019-05-10T08:16:21.905Z,999.53
2019-05-10T08:17:45.628Z,999.55
2019-05-10T08:18:42.632Z,999.54
2019-05-10T08:19:42.180Z,999.60
2019-05-10T08:20:50.445Z,999.53
2019-05-10T08:22:09.507Z,999.57
2019-05-10T08:23:09.363Z,999.54
2019-05-10T08:24:13.703Z,999.63
2019-05-10T08:25:43.922Z,999.62
2019-05-10T08:27:11.287Z,999.62
2019-05-10T08:28:05.790Z,999.59
2019-05-10T08:29:07.674Z,999.62
2019-05-10T08:30:33.168Z,999.66
2019-05-10T08:31:39.278Z,999.65
2019-05-10T08:33:00.235Z,999.66
2019-05-10T08:34:28.951Z,999.59
2019-05-10T08:36:00.717Z,999.75
2019-05-10T08:37:30.361Z,999.68
2019-05-10T08:38:22.049Z,999.70
2019-05-10T08:39:22.199Z,999.64
2019-05-10T08:40:24.534Z,999.71
2019-05-10T08:41:22.374Z,999.72
2019-05-10T08:42:38.098Z,999.71
2019-05-10T08:43:47.051Z,999.67
2019-05-10T08:44:53.737Z,999.73
2019-05-10T08:46:24.287Z,999.65
2019-05-10T08:47:46.544Z,999.80
2019-05-10T08:48:50.722Z,999.72
2019-05-10T08:50:06.491Z,999.73
2019-05-10T08:51:13.748Z,999.74
2019-05-10T08:52:13.743Z,999.72
2019-05-10T08:53:16.422Z,999.72
2019-05-10T08:55:13.726Z,999.79
2019-05-10T08:56:20.895Z,999.75
2019-05-10T08:57:44.417Z,999.76
2019-05-10T08:59:16.302Z,999.89
2019-05-10T09:00:52.969Z,999.82
2019-05-10T09:02:07.828Z,999.88
2019-05-10T09:03:09.723Z,999.94
2019-05-10T09:04:10.870Z,999.90
2019-05-10T09:05:07.814Z,999.85
2019-05-10T09:06:11.880Z,999.81
2019-05-10T09:07:38.980Z,999.76
2019-05-10T09:08:35.060Z,999.80
2019-05-10T09:09:45.599Z,999.83
2019-05-10T09:11:06.612Z,999.80
2019-05-10T09:12:04.085Z,999.85
2019-05-10T09:13:37.275Z,999.93
2019-05-10T09:15:05.501Z,999.91
2019-05-10T09:15:58.703Z,999.96
2019-05-10T09:17:01.641Z,1000.03
2019-05-10T09:18:28.968Z,999.95
2019-05-10T09:19:39.615Z,999.97
2019-05-10T09:21:56.435Z,999.93
2019-05-10T09:22:56.170Z,1000.04
2019-05-10T09:24:01.480Z,1000.05
2019-05-10T09:24:56.160Z,1000.02
2019-05-10T09:25:56.152Z,1000.09
2019-05-10T09:26:57.068Z,1000.04
2019-05-10T09:27:56.140Z,999.99
2019-05-10T09:28:57.715Z,1000.03
2019-05-10T09:29:56.128Z,1000.05
2019-05-10T09:31:01.016Z,1000.06
2019-05-10T09:33:23.333Z,1000.09
2019-05-10T09:34:26.070Z,1000.08
2019-05-10T09:35:23.321Z,1000.08
2019-05-10T09:36:31.235Z,1000.13
2019-05-10T09:37:25.324Z,1000.08
2019-05-10T09:38:23.303Z,1000.22
2019-05-10T09:39:25.269Z,1000.09
2019-05-10T09:40:23.289Z,1000.13
2019-05-10T09:41:27.587Z,1000.15
2019-05-10T09:42:31.881Z,1000.09
2019-05-10T09:43:51.613Z,1000.10
2019-05-10T09:44:52.626Z,1000.15
2019-05-10T09:45:52.848Z,1000.15
2019-05-10T09:46:52.478Z,1000.17
2019-05-10T09:48:17.720Z,1000.07
2019-05-10T09:49:18.659Z,1000.21
2019-05-10T09:50:17.723Z,1000.14
2019-05-10T09:51:19.111Z,1000.13
2019-05-10T09:52:44.936Z,1000.19
2019-05-10T09:53:44.934Z,1000.16
2019-05-10T09:54:49.215Z,1000.16
2019-05-10T09:55:55.241Z,1000.21
2019-05-10T09:56:52.052Z,1000.18
2019-05-10T09:57:44.908Z,1000.21
2019-05-10T09:58:44.902Z,1000.24
2019-05-10T09:59:46.950Z,1000.21
2019-05-10T10:00:44.891Z,1000.24
2019-05-10T10:01:44.880Z,1000.25
2019-05-10T10:02:49.475Z,1000.23
2019-05-10T10:04:12.110Z,1000.23
2019-05-10T10:05:12.041Z,1000.19
2019-05-10T10:06:12.035Z,1000.17
2019-05-10T10:07:12.028Z,1000.24
2019-05-10T10:08:12.031Z,1000.24
2019-05-10T10:09:12.051Z,1000.26
2019-05-10T10:10:12.747Z,1000.25
2019-05-10T10:11:15.751Z,1000.28
2019-05-10T10:12:39.297Z,1000.23
2019-05-10T10:13:43.604Z,1000.29
2019-05-10T10:14:43.118Z,1000.26
2019-05-10T10:15:39.280Z,1000.28
2019-05-10T10:16:39.275Z,1000.28
2019-05-10T10:17:42.350Z,1000.26
2019-05-10T10:18:39.260Z,1000.16
2019-05-10T10:19:40.581Z,1000.15
2019-05-10T10:20:43.434Z,1000.16
2019-05-10T10:21:39.240Z,1000.21
2019-05-10T10:22:43.540Z,1000.19
2019-05-10T10:24:15.485Z,1000.23
2019-05-10T10:25:35.260Z,1000.24
2019-05-10T10:27:00.848Z,1000.22
2019-05-10T10:29:00.886Z,1000.15
2019-05-10T10:31:05.242Z,1000.25
2019-05-10T10:32:00.818Z,1000.21
2019-05-10T10:33:05.746Z,1000.20
2019-05-10T10:34:32.655Z,1000.28
2019-05-10T10:35:30.024Z,1000.24
2019-05-10T10:36:27.969Z,1000.27
2019-05-10T10:37:31.194Z,1000.30
2019-05-10T10:38:31.051Z,1000.33
2019-05-10T10:39:27.951Z,1000.26
2019-05-10T10:40:28.143Z,1000.29
2019-05-10T10:41:31.907Z,1000.29
2019-05-10T10:42:27.932Z,1000.28
2019-05-10T10:44:27.971Z,1000.24
2019-05-10T10:45:57.230Z,1000.25
2019-05-10T10:46:58.044Z,1000.28
2019-05-10T10:47:57.163Z,1000.19
2019-05-10T10:48:55.126Z,1000.25
2019-05-10T10:49:57.338Z,1000.24
2019-05-10T10:50:57.926Z,1000.28
2019-05-10T10:51:57.298Z,1000.27
2019-05-10T10:52:57.363Z,1000.25
2019-05-10T10:53:58.029Z,1000.28
2019-05-10T10:54:55.087Z,1000.23
2019-05-10T10:56:00.903Z,1000.21
2019-05-10T10:57:22.297Z,1000.24
2019-05-10T10:58:22.294Z,1000.22
2019-05-10T10:59:22.285Z,1000.24
2019-05-10T11:00:23.680Z,1000.28
2019-05-10T11:01:25.586Z,1000.24
2019-05-10T11:02:32.677Z,1000.27
2019-05-10T11:03:30.394Z,1000.27
2019-05-10T11:04:49.479Z,1000.17
2019-05-10T11:05:49.474Z,1000.19
2019-05-10T11:06:49.467Z,1000.17
2019-05-10T11:07:51.267Z,1000.20
2019-05-10T11:08:51.713Z,1000.22
2019-05-10T11:09:53.697Z,1000.21
2019-05-10T11:11:16.740Z,1000.10
2019-05-10T11:12:21.060Z,1000.14
2019-05-10T11:13:23.968Z,1000.11
2019-05-10T11:14:45.510Z,1000.13
2019-05-10T11:15:43.949Z,1000.21
2019-05-10T11:16:46.764Z,1000.18
2019-05-10T11:18:11.161Z,1000.14
2019-05-10T11:19:15.435Z,1000.16
2019-05-10T11:20:11.637Z,1000.21
2019-05-10T11:21:11.336Z,1000.13
2019-05-10T11:22:11.153Z,1000.14
2019-05-10T11:23:11.148Z,1000.14
2019-05-10T11:24:17.910Z,1000.14
2019-05-10T11:25:12.838Z,1000.13
2019-05-10T11:26:40.538Z,1000.08
2019-05-10T11:27:38.355Z,1000.11
2019-05-10T11:28:40.048Z,1000.04
2019-05-10T11:29:38.346Z,1000.08
2019-05-10T11:30:38.344Z,1000.10
2019-05-10T11:31:38.348Z,1000.05
2019-05-10T11:32:38.323Z,1000.09
2019-05-10T11:34:06.232Z,1000.08
2019-05-10T11:35:05.712Z,1000.06
2019-05-10T11:36:08.613Z,1000.05
2019-05-10T11:37:05.526Z,1000.09
2019-05-10T11:38:06.621Z,1000.09
2019-05-10T11:39:06.097Z,1000.04
2019-05-10T11:40:05.512Z,1000.06
2019-05-10T11:41:07.063Z,1000.10
2019-05-10T11:42:37.577Z,1000.08
2019-05-10T11:45:00.797Z,1000.13
2019-05-10T11:45:59.981Z,1000.09
2019-05-10T11:47:01.488Z,1000.09
2019-05-10T11:48:02.149Z,1000.10
2019-05-10T11:49:01.801Z,1000.07
2019-05-10T11:50:06.078Z,1000.03
2019-05-10T11:51:27.364Z,1000.09
2019-05-10T11:52:29.102Z,1000.04
2019-05-10T11:55:54.529Z,1000.05
2019-05-10T11:56:58.456Z,1000.00
2019-05-10T11:59:27.300Z,999.96
2019-05-10T12:00:55.838Z,999.93
2019-05-10T12:02:37.083Z,1000.00
2019-05-10T12:03:22.399Z,999.91
2019-05-10T12:04:24.078Z,999.91
2019-05-10T12:05:43.388Z,999.90
2019-05-10T12:07:16.629Z,999.90
2019-05-10T12:07:46.118Z,999.94
2019-05-10T12:08:43.370Z,999.90
2019-05-10T12:09:43.363Z,999.93
2019-05-10T12:10:52.623Z,999.92
2019-05-10T12:12:12.166Z,999.93
2019-05-10T12:13:18.594Z,999.97
2019-05-10T12:14:37.794Z,999.95
2019-05-10T12:15:37.788Z,999.96
2019-05-10T12:17:37.823Z,999.95
2019-05-10T12:18:46.390Z,999.98
2019-05-10T12:20:04.985Z,999.94
2019-05-10T12:21:09.537Z,999.98
2019-05-10T12:22:37.893Z,999.98
2019-05-10T12:24:10.596Z,999.88
2019-05-10T12:25:42.706Z,999.99
2019-05-10T12:26:20.249Z,999.95
2019-05-10T12:27:53.811Z,999.94
2019-05-10T12:28:53.802Z,999.91
2019-05-10T12:29:59.583Z,999.88
2019-05-10T12:31:23.205Z,999.94
2019-05-10T12:32:21.393Z,999.99
2019-05-10T12:33:25.200Z,999.94
2019-05-10T12:34:51.996Z,999.96
2019-05-10T12:36:25.457Z,999.95
2019-05-10T12:37:46.178Z,999.95
2019-05-10T12:39:11.573Z,1000.00
2019-05-10T12:40:14.899Z,1000.03
2019-05-10T12:42:37.116Z,999.95
2019-05-10T12:43:37.114Z,999.92
2019-05-10T12:44:38.951Z,999.93
2019-05-10T12:46:41.377Z,999.87
2019-05-10T12:47:37.111Z,999.89
2019-05-10T12:48:37.114Z,999.85
2019-05-10T12:49:37.101Z,999.88
2019-05-10T12:50:37.105Z,999.92
2019-05-10T12:51:37.097Z,999.95
2019-05-10T12:52:37.098Z,999.93
2019-05-10T12:53:44.461Z,999.93
2019-05-10T12:55:04.255Z,999.96
2019-05-10T12:56:04.275Z,999.95
2019-05-10T12:57:04.246Z,999.97
2019-05-10T12:58:04.238Z,1000.01
2019-05-10T13:00:06.750Z,1000.01
2019-05-10T13:01:33.109Z,1000.06
2019-05-10T13:02:31.438Z,1000.00
2019-05-10T13:03:33.658Z,1000.02
2019-05-10T13:04:40.216Z,1000.00
2019-05-10T13:05:58.670Z,1000.06
2019-05-10T13:06:58.663Z,1000.08
2019-05-10T13:07:58.655Z,1000.07
2019-05-10T13:08:58.699Z,1000.16
2019-05-10T13:10:03.650Z,1000.03
2019-05-10T13:11:27.075Z,1000.06
2019-05-10T13:12:25.858Z,1000.09
2019-05-10T13:13:29.792Z,1000.02
2019-05-10T13:14:28.938Z,999.99
2019-05-10T13:15:31.009Z,1000.01
2019-05-10T13:16:25.829Z,999.91
2019-05-10T13:17:25.821Z,999.94
2019-05-10T13:18:49.163Z,999.97
2019-05-10T13:19:58.504Z,1000.04
2019-05-10T13:21:22.902Z,999.91
2019-05-10T13:22:20.268Z,999.99
2019-05-10T13:23:20.252Z,999.97
2019-05-10T13:24:20.242Z,1000.07
2019-05-10T13:25:20.327Z,1000.02
2019-05-10T13:26:20.237Z,1000.01
2019-05-10T13:27:20.227Z,1000.04
2019-05-10T13:28:20.215Z,1000.00
2019-05-10T13:29:20.208Z,999.95
2019-05-10T13:30:27.444Z,1000.07
2019-05-10T13:31:47.436Z,999.98
2019-05-10T13:32:47.432Z,999.99
2019-05-10T13:34:47.418Z,999.98
2019-05-10T13:35:50.731Z,999.98
2019-05-10T13:36:49.403Z,999.92
2019-05-10T13:37:47.422Z,1000.04
2019-05-10T13:38:49.184Z,1000.06